Time;durP1;ratioP1;P1;durP2;ratioP2;P2;SDS_P1;SDS_P2;PMS_P1;PMS_P2;Temp;Humidity;BMP_temperature;BMP_pressure;BME280_temperature;BME280_humidity;BME280_pressure;Samples;Min_cycle;Max_cycle;Signal;HPM_P1;HPM_P2
2023/12/08 00:00:59;;;;;;;1.67;1.58;;;;;;;3.51;59.37;100076.59;5324386;26;20099;-89
2023/12/08 00:03:24;;;;;;;2.78;2.65;;;;;;;3.56;59.38;100083.47;5342274;26;20103;-88
2023/12/08 00:05:50;;;;;;;0.52;0.52;;;;;;;3.49;59.37;100086.88;5341482;26;20107;-88
2023/12/08 00:08:15;;;;;;;3.60;3.30;;;;;;;3.33;59.36;100095.44;5341395;26;24312;-89
2023/12/08 00:10:41;;;;;;;2.35;2.17;;;;;;;3.26;59.36;100089.41;5343161;26;24625;-87
2023/12/08 00:13:06;;;;;;;3.30;1.73;;;;;;;3.22;59.35;100097.09;5342022;26;20123;-88
2023/12/08 00:15:31;;;;;;;1.30;1.20;;;;;;;3.12;59.35;100095.38;5341262;26;21286;-88
2023/12/08 00:17:57;;;;;;;1.08;1.08;;;;;;;3.19;59.35;100090.25;5342020;26;20470;-89
2023/12/08 00:20:23;;;;;;;4.68;2.85;;;;;;;3.19;59.35;100097.94;5343132;26;20091;-89
2023/12/08 00:22:48;;;;;;;13.43;2.83;;;;;;;3.02;59.34;100102.16;5342407;26;20060;-88
2023/12/08 00:25:15;;;;;;;4.85;1.60;;;;;;;3.09;59.34;100101.37;5323559;26;20124;-88
2023/12/08 00:27:40;;;;;;;2.30;2.10;;;;;;;3.01;59.34;100103.03;5305512;26;20081;-88
2023/12/08 00:30:06;;;;;;;3.75;3.47;;;;;;;2.97;59.34;100094.44;5323225;26;20054;-88
2023/12/08 00:32:50;;;;;;;2.58;2.37;;;;;;;2.93;59.33;100104.72;5342451;26;20048;-89
2023/12/08 00:35:15;;;;;;;6.35;3.33;;;;;;;2.82;59.34;100106.34;5344346;26;20057;-88
2023/12/08 00:37:41;;;;;;;1.67;1.58;;;;;;;2.77;59.33;100117.47;5323036;26;30874;-88
2023/12/08 00:40:08;;;;;;;0.88;0.75;;;;;;;2.78;59.32;100123.47;5324028;26;20116;-88
2023/12/08 00:42:33;;;;;;;2.60;1.92;;;;;;;2.84;59.33;100117.50;5342688;26;20074;-89
2023/12/08 00:44:59;;;;;;;0.90;0.88;;;;;;;2.88;59.34;100114.97;5342107;26;20405;-88
2023/12/08 00:47:24;;;;;;;1.65;1.45;;;;;;;3.08;59.34;100118.50;5323933;26;20119;-88
2023/12/08 00:49:50;;;;;;;3.75;3.45;;;;;;;2.79;59.33;100120.06;5343296;26;27436;-87
2023/12/08 00:52:15;;;;;;;1.48;1.40;;;;;;;2.77;59.33;100124.34;5341756;26;24478;-89
2023/12/08 00:54:41;;;;;;;2.45;2.25;;;;;;;2.85;59.33;100126.97;5341724;26;29710;-89
2023/12/08 00:57:06;;;;;;;5.70;2.75;;;;;;;2.92;59.33;100128.72;5322947;26;24038;-88
2023/12/08 00:59:31;;;;;;;1.62;1.52;;;;;;;2.85;59.33;100132.09;5342124;26;20163;-88
2023/12/08 01:01:57;;;;;;;0.37;0.37;;;;;;;2.80;59.32;100136.34;5342368;26;20071;-87
2023/12/08 01:04:22;;;;;;;2.75;1.12;;;;;;;2.75;59.33;100136.31;5342467;26;20119;-88
2023/12/08 01:06:48;;;;;;;2.00;1.60;;;;;;;2.66;59.33;100146.56;5343308;26;21125;-88
2023/12/08 01:09:13;;;;;;;2.00;1.85;;;;;;;2.67;59.32;100131.16;5344815;26;20366;-87
2023/12/08 01:11:38;;;;;;;2.40;2.20;;;;;;;2.65;59.31;100145.69;5327417;26;20105;-87
2023/12/08 01:14:04;;;;;;;1.37;1.00;;;;;;;2.56;59.31;100132.78;5346988;26;20155;-88
2023/12/08 01:16:30;;;;;;;0.90;0.90;;;;;;;2.47;59.31;100132.72;5354989;26;20060;-88
2023/12/08 01:18:55;;;;;;;1.02;0.70;;;;;;;2.59;59.32;100132.78;5341456;26;20098;-87
2023/12/08 01:21:20;;;;;;;1.08;0.88;;;;;;;2.38;59.31;100137.81;5341623;26;20454;-87
2023/12/08 01:23:46;;;;;;;6.53;1.23;;;;;;;2.52;59.31;100143.88;5322977;26;23234;-87
2023/12/08 01:26:11;;;;;;;1.83;1.55;;;;;;;2.58;59.32;100143.91;5304010;26;32262;-88
2023/12/08 01:28:37;;;;;;;0.37;0.37;;;;;;;2.53;59.31;100144.75;5322722;26;20076;-88
2023/12/08 01:31:03;;;;;;;0.62;0.62;;;;;;;2.55;59.31;100151.59;5342115;26;20050;-88
2023/12/08 01:33:28;;;;;;;0.40;0.40;;;;;;;2.57;59.31;100149.06;5343692;26;20078;-88
2023/12/08 01:35:54;;;;;;;0.30;0.30;;;;;;;2.54;59.31;100152.47;5342588;26;20389;-88
2023/12/08 01:38:19;;;;;;;1.85;1.33;;;;;;;2.55;59.31;100146.47;5324363;26;20389;-88
2023/12/08 01:40:45;;;;;;;3.08;2.60;;;;;;;2.68;59.32;100148.28;5342870;26;20447;-87
2023/12/08 01:43:11;;;;;;;1.55;1.45;;;;;;;2.88;59.34;100150.13;5341524;26;20072;-89
2023/12/08 01:45:37;;;;;;;0.20;0.20;;;;;;;2.76;59.33;100141.47;5342117;26;20064;-88
2023/12/08 01:48:03;;;;;;;3.20;0.60;;;;;;;2.86;59.33;100144.97;5342032;26;20056;-88
2023/12/08 01:50:28;;;;;;;0.43;0.43;;;;;;;2.92;59.33;100139.84;5323865;26;20055;-88
2023/12/08 01:52:53;;;;;;;2.90;1.92;;;;;;;2.84;59.33;100130.34;5322619;26;31714;-88
2023/12/08 01:55:19;;;;;;;1.45;0.80;;;;;;;2.86;59.33;100124.41;5323367;26;20087;-88
2023/12/08 01:57:44;;;;;;;1.80;1.67;;;;;;;3.18;59.35;100121.97;5324921;26;22215;-88
2023/12/08 02:00:10;;;;;;;4.65;1.95;;;;;;;3.15;59.35;100129.66;5323454;26;20067;-88
2023/12/08 02:02:35;;;;;;;7.12;1.30;;;;;;;3.23;59.35;100120.25;5342233;26;20110;-88
2023/12/08 02:05:01;;;;;;;2.17;2.00;;;;;;;3.07;59.34;100128.75;5305016;26;20076;-88
2023/12/08 02:07:27;;;;;;;0.22;0.22;;;;;;;3.14;59.35;100124.53;5323031;26;20181;-87
2023/12/08 02:09:52;;;;;;;0.57;0.57;;;;;;;3.10;59.35;100128.81;5302820;26;30744;-87
2023/12/08 02:12:17;;;;;;;0.10;0.10;;;;;;;3.05;59.35;100126.19;5304294;26;20120;-87
2023/12/08 02:14:43;;;;;;;1.25;1.25;;;;;;;3.06;59.34;100119.31;5322690;26;25493;-88
2023/12/08 02:17:15;;;;;;;1.20;1.12;;;;;;;3.12;59.35;100118.50;5306138;26;20057;-87
2023/12/08 02:19:40;;;;;;;0.45;0.45;;;;;;;3.23;59.35;100115.13;5343822;26;20048;-87
2023/12/08 02:22:06;;;;;;;0.25;0.25;;;;;;;3.15;59.35;100121.09;5341031;26;34975;-87
2023/12/08 02:24:33;;;;;;;2.22;1.98;;;;;;;3.30;59.35;100122.00;5341577;26;20103;-87
2023/12/08 02:26:58;;;;;;;1.52;1.42;;;;;;;3.21;59.35;100116.81;5305074;26;20063;-88
2023/12/08 02:29:24;;;;;;;0.57;0.57;;;;;;;3.44;59.36;100119.47;5341750;26;21528;-88
2023/12/08 02:31:58;;;;;;;1.75;1.27;;;;;;;3.16;59.34;100115.94;5341998;26;20052;-88
2023/12/08 02:34:24;;;;;;;0.20;0.20;;;;;;;3.29;59.35;100114.25;5324084;26;20084;-87
2023/12/08 02:36:50;;;;;;;3.15;1.08;;;;;;;3.31;59.35;100112.56;5323617;26;20072;-87
2023/12/08 02:39:16;;;;;;;0.00;0.00;;;;;;;3.27;59.36;100110.84;5305302;26;20089;-87
2023/12/08 02:41:44;;;;;;;0.75;0.68;;;;;;;3.42;59.37;100110.03;5324273;26;20405;-87
2023/12/08 02:44:12;;;;;;;0.52;0.52;;;;;;;3.30;59.35;100118.56;5305601;26;33481;-87
2023/12/08 02:46:37;;;;;;;0.85;0.85;;;;;;;3.27;59.36;100119.41;5345110;26;28203;-87
2023/12/08 02:49:02;;;;;;;0.10;0.10;;;;;;;3.39;59.36;100119.47;5326474;26;28090;-88
2023/12/08 02:51:28;;;;;;;7.55;1.65;;;;;;;3.29;59.35;100120.28;5347524;26;20072;-88
2023/12/08 02:53:53;;;;;;;2.47;2.05;;;;;;;3.37;59.36;100128.91;5342392;26;32542;-87
2023/12/08 02:56:19;;;;;;;2.62;2.00;;;;;;;3.24;59.36;100116.81;5323348;26;20418;-88
2023/12/08 02:58:45;;;;;;;2.80;2.03;;;;;;;3.13;59.35;100123.66;5342195;26;20399;-87
2023/12/08 03:01:10;;;;;;;2.08;1.12;;;;;;;3.28;59.36;100122.84;5305100;26;20071;-87
2023/12/08 03:03:35;;;;;;;1.58;1.48;;;;;;;3.09;59.34;100132.22;5341457;26;23618;-87
2023/12/08 03:06:01;;;;;;;0.00;0.00;;;;;;;3.05;59.34;100125.31;5304117;26;32314;-87
2023/12/08 03:08:26;;;;;;;0.50;0.50;;;;;;;3.25;59.36;100117.69;5304340;26;29296;-87
2023/12/08 03:10:51;;;;;;;3.70;0.68;;;;;;;3.26;59.36;100120.25;5342879;26;21555;-87
2023/12/08 03:13:17;;;;;;;2.20;1.98;;;;;;;3.32;59.36;100117.75;5323285;26;25670;-88
2023/12/08 03:15:42;;;;;;;0.60;0.60;;;;;;;3.37;59.36;100120.31;5341208;26;25631;-87
2023/12/08 03:18:08;;;;;;;11.60;1.45;;;;;;;3.22;59.35;100115.97;5341752;26;20063;-87
2023/12/08 03:20:33;;;;;;;1.25;1.15;;;;;;;3.19;59.35;100112.53;5341138;26;25750;-87
2023/12/08 03:22:59;;;;;;;1.40;1.30;;;;;;;3.35;59.36;100116.88;5341378;26;20326;-87
2023/12/08 03:25:25;;;;;;;1.17;1.12;;;;;;;3.00;59.34;100114.16;5323581;26;20845;-87
2023/12/08 03:27:50;;;;;;;0.00;0.00;;;;;;;3.12;59.35;100116.81;5342006;26;24628;-88
2023/12/08 03:30:16;;;;;;;0.65;0.65;;;;;;;3.26;59.36;100107.41;5344136;26;20084;-87
2023/12/08 03:32:41;;;;;;;0.82;0.82;;;;;;;3.15;59.35;100114.25;5342995;26;20060;-87
2023/12/08 03:35:07;;;;;;;0.15;0.15;;;;;;;3.08;59.34;100123.66;5305527;26;27598;-87
2023/12/08 03:37:32;;;;;;;11.30;3.17;;;;;;;3.11;59.35;100109.09;5305749;26;20044;-87
2023/12/08 03:39:57;;;;;;;1.00;1.00;;;;;;;2.85;59.33;100116.69;5324307;26;20082;-87
2023/12/08 03:42:23;;;;;;;0.77;0.70;;;;;;;2.69;59.32;100118.31;5323363;26;27451;-87
2023/12/08 03:44:48;;;;;;;0.52;0.52;;;;;;;2.56;59.31;100124.19;5322975;26;20083;-87
2023/12/08 03:47:13;;;;;;;3.12;2.28;;;;;;;2.41;59.30;100124.97;5323226;26;35509;-87
2023/12/08 03:49:39;;;;;;;1.17;1.15;;;;;;;2.31;59.30;100121.47;5324485;26;20480;-86
2023/12/08 03:52:04;;;;;;;0.45;0.45;;;;;;;2.50;59.30;100122.47;5342870;26;20108;-87
2023/12/08 03:54:30;;;;;;;0.00;0.00;;;;;;;2.69;59.32;100120.88;5327409;26;20096;-87
2023/12/08 03:56:55;;;;;;;0.75;0.75;;;;;;;2.66;59.33;100111.44;5324447;26;20055;-87
2023/12/08 03:59:20;;;;;;;1.08;1.08;;;;;;;2.67;59.32;100105.44;5342817;26;20378;-87
2023/12/08 04:01:46;;;;;;;4.18;2.17;;;;;;;2.60;59.32;100107.94;5341878;26;25581;-87
2023/12/08 04:04:13;;;;;;;0.10;0.10;;;;;;;2.56;59.31;100114.78;5305589;26;20095;-88
2023/12/08 04:06:38;;;;;;;1.27;1.17;;;;;;;2.55;59.31;100113.06;5324072;26;20048;-87
2023/12/08 04:09:03;;;;;;;0.73;0.73;;;;;;;2.59;59.32;100107.09;5323343;26;24656;-87
2023/12/08 04:11:29;;;;;;;2.15;1.65;;;;;;;2.67;59.32;100108.00;5323407;26;26239;-87
2023/12/08 04:13:54;;;;;;;0.20;0.20;;;;;;;2.75;59.32;100106.34;5324054;26;20718;-87
2023/12/08 04:16:19;;;;;;;0.10;0.10;;;;;;;2.78;59.32;100102.91;5344233;26;20044;-87
2023/12/08 04:18:45;;;;;;;0.20;0.20;;;;;;;2.74;59.33;100096.03;5323876;26;20080;-87
2023/12/08 04:21:16;;;;;;;1.25;1.15;;;;;;;2.63;59.32;100090.00;5344564;26;20456;-86
2023/12/08 04:23:42;;;;;;;2.05;1.02;;;;;;;2.79;59.32;100091.78;5324322;26;20052;-86
2023/12/08 04:26:07;;;;;;;1.45;0.50;;;;;;;2.61;59.32;100087.44;5323642;26;30918;-86
2023/12/08 04:28:34;;;;;;;0.43;0.43;;;;;;;2.67;59.32;100086.59;5343642;26;20049;-86
2023/12/08 04:30:59;;;;;;;0.45;0.45;;;;;;;2.75;59.32;100083.19;5344225;26;20116;-86
2023/12/08 04:33:25;;;;;;;0.43;0.43;;;;;;;2.91;59.33;100081.56;5341354;26;35868;-86
2023/12/08 04:35:50;;;;;;;1.58;1.48;;;;;;;2.94;59.33;100088.44;5341808;26;24043;-87
2023/12/08 04:38:15;;;;;;;0.40;0.40;;;;;;;3.04;59.34;100088.47;5323345;26;20092;-87
2023/12/08 04:40:41;;;;;;;0.90;0.90;;;;;;;3.06;59.34;100078.19;5338953;26;96343;-87
2023/12/08 04:43:07;;;;;;;0.77;0.55;;;;;;;3.21;59.35;100075.66;5342744;26;20072;-87
2023/12/08 04:45:32;;;;;;;0.08;0.08;;;;;;;3.05;59.34;100074.75;5342707;26;20325;-87
2023/12/08 04:47:58;;;;;;;0.00;0.00;;;;;;;3.08;59.34;100077.34;5342436;26;20072;-87
2023/12/08 04:50:23;;;;;;;1.35;0.75;;;;;;;3.02;59.34;100071.31;5345232;26;20443;-87
2023/12/08 04:52:49;;;;;;;0.85;0.85;;;;;;;2.92;59.33;100067.00;5344443;26;20067;-87
2023/12/08 04:55:14;;;;;;;0.37;0.30;;;;;;;3.23;59.35;100055.09;5343333;26;33026;-86
2023/12/08 04:57:39;;;;;;;0.65;0.62;;;;;;;3.38;59.36;100061.13;5341858;26;28671;-86
2023/12/08 05:00:05;;;;;;;2.75;0.75;;;;;;;3.20;59.35;100060.22;5323325;26;25829;-86
2023/12/08 05:02:31;;;;;;;0.95;0.75;;;;;;;3.18;59.36;100064.50;5342311;26;20075;-86
2023/12/08 05:04:56;;;;;;;1.08;0.93;;;;;;;3.20;59.35;100062.81;5341482;26;27729;-87
2023/12/08 05:07:21;;;;;;;0.62;0.62;;;;;;;3.24;59.35;100067.09;5341496;26;30319;-87
2023/12/08 05:09:47;;;;;;;4.80;0.43;;;;;;;3.35;59.36;100074.00;5327134;26;20099;-88
2023/12/08 05:12:12;;;;;;;1.75;1.65;;;;;;;3.33;59.36;100075.72;5342512;26;20075;-87
2023/12/08 05:14:38;;;;;;;0.20;0.20;;;;;;;3.25;59.36;100084.25;5341814;26;20087;-88
2023/12/08 05:17:03;;;;;;;7.32;4.25;;;;;;;3.24;59.36;100078.25;5341686;26;30189;-87
2023/12/08 05:19:29;;;;;;;2.22;0.55;;;;;;;3.36;59.36;100090.28;5323841;26;20084;-87
2023/12/08 05:21:55;;;;;;;0.35;0.35;;;;;;;3.22;59.35;100089.38;5322836;26;27811;-87
2023/12/08 05:24:20;;;;;;;1.10;0.37;;;;;;;3.36;59.36;100085.16;5342450;26;20067;-87
2023/12/08 05:26:46;;;;;;;2.62;1.55;;;;;;;3.23;59.35;100101.41;5341718;26;20476;-88
2023/12/08 05:29:11;;;;;;;1.35;1.25;;;;;;;3.28;59.36;100094.53;5342977;26;20088;-87
2023/12/08 05:31:37;;;;;;;0.10;0.10;;;;;;;3.33;59.36;100098.88;5346866;26;22900;-86
2023/12/08 05:34:02;;;;;;;0.13;0.13;;;;;;;3.42;59.37;100102.31;5322840;26;20052;-86
2023/12/08 05:36:29;;;;;;;0.55;0.47;;;;;;;3.42;59.36;100100.59;5342748;26;32437;-88
2023/12/08 05:38:54;;;;;;;3.92;0.73;;;;;;;3.27;59.36;100097.97;5351558;26;20056;-88
2023/12/08 05:41:19;;;;;;;3.87;1.02;;;;;;;3.36;59.36;100106.59;5349580;26;20075;-87
2023/12/08 05:43:46;;;;;;;0.08;0.08;;;;;;;3.44;59.36;100098.88;5347917;26;29672;-87
2023/12/08 05:46:11;;;;;;;0.20;0.15;;;;;;;3.45;59.36;100094.59;5327685;26;20063;-87
2023/12/08 05:48:37;;;;;;;0.22;0.22;;;;;;;3.48;59.37;100092.03;5326880;26;20121;-86
2023/12/08 05:51:02;;;;;;;0.22;0.22;;;;;;;3.39;59.37;100093.72;5327825;26;20048;-87
2023/12/08 05:53:28;;;;;;;1.75;1.65;;;;;;;3.34;59.36;100100.59;5366478;26;20050;-87
2023/12/08 05:55:53;;;;;;;0.77;0.77;;;;;;;3.59;59.37;100098.94;5345042;26;31316;-87
2023/12/08 05:58:18;;;;;;;1.42;1.33;;;;;;;3.73;59.38;100088.63;5345771;26;20072;-87
2023/12/08 06:00:44;;;;;;;4.07;0.85;;;;;;;3.55;59.37;100091.16;5327241;26;20048;-87
2023/12/08 06:03:09;;;;;;;0.50;0.47;;;;;;;3.43;59.36;100091.16;5344865;26;28233;-87
2023/12/08 06:05:35;;;;;;;1.55;1.45;;;;;;;3.34;59.36;100102.31;5328477;26;20127;-87
2023/12/08 06:08:00;;;;;;;0.35;0.30;;;;;;;3.20;59.36;100094.53;5344660;26;24968;-87
2023/12/08 06:10:25;;;;;;;1.67;1.52;;;;;;;3.36;59.36;100093.72;5327142;26;20076;-87
2023/12/08 06:12:52;;;;;;;0.15;0.15;;;;;;;3.35;59.36;100102.31;5307804;26;31090;-87
2023/12/08 06:15:17;;;;;;;4.65;1.52;;;;;;;3.23;59.35;100098.81;5327433;26;20111;-87
2023/12/08 06:17:43;;;;;;;0.20;0.20;;;;;;;3.23;59.35;100107.41;5327128;26;20070;-87
2023/12/08 06:20:11;;;;;;;0.30;0.30;;;;;;;3.23;59.35;100112.53;5345191;26;21299;-87
2023/12/08 06:22:37;;;;;;;0.15;0.15;;;;;;;3.29;59.35;100117.69;5345934;26;20047;-87
2023/12/08 06:25:02;;;;;;;0.03;0.03;;;;;;;3.29;59.35;100114.25;5308753;26;20373;-86
2023/12/08 06:27:28;;;;;;;2.00;0.93;;;;;;;3.29;59.36;100114.25;5311291;26;20093;-87
2023/12/08 06:29:53;;;;;;;0.10;0.10;;;;;;;3.46;59.36;100106.59;5327111;26;20067;-87
2023/12/08 06:32:18;;;;;;;1.52;1.42;;;;;;;3.30;59.36;100109.13;5326278;26;29508;-87
2023/12/08 06:34:45;;;;;;;2.20;1.40;;;;;;;3.36;59.36;100111.75;5326826;26;20375;-88
2023/12/08 06:37:11;;;;;;;0.30;0.30;;;;;;;3.46;59.36;100114.31;5327797;26;20060;-89
2023/12/08 06:39:39;;;;;;;1.27;1.17;;;;;;;3.37;59.36;100108.31;5345730;26;20472;-87
2023/12/08 06:42:04;;;;;;;0.45;0.45;;;;;;;3.21;59.35;100111.69;5346220;26;20063;-87
2023/12/08 06:44:30;;;;;;;1.25;1.15;;;;;;;3.33;59.36;100111.72;5345591;26;20070;-88
2023/12/08 06:46:55;;;;;;;1.83;0.90;;;;;;;3.40;59.37;100107.47;5348475;26;20107;-88
2023/12/08 06:49:20;;;;;;;0.15;0.15;;;;;;;3.52;59.37;100107.47;5347077;26;23831;-87
2023/12/08 06:51:46;;;;;;;0.10;0.10;;;;;;;3.32;59.36;100111.72;5365184;26;27274;-88
2023/12/08 06:54:11;;;;;;;1.95;1.30;;;;;;;3.45;59.36;100126.34;5326566;26;27402;-88
2023/12/08 06:56:40;;;;;;;0.82;0.82;;;;;;;3.35;59.36;100125.47;5345701;26;20106;-87
2023/12/08 06:59:07;;;;;;;1.70;1.50;;;;;;;3.54;59.38;100110.03;5327168;26;20077;-87
2023/12/08 07:01:33;;;;;;;0.93;0.85;;;;;;;3.43;59.36;100114.31;5346208;26;20109;-88
2023/12/08 07:03:58;;;;;;;0.00;0.00;;;;;;;3.49;59.37;100109.19;5365744;26;34930;-87
2023/12/08 07:06:23;;;;;;;0.37;0.37;;;;;;;3.52;59.37;100111.75;5328216;26;20078;-87
2023/12/08 07:08:49;;;;;;;0.95;0.95;;;;;;;3.53;59.38;100126.34;5367386;26;20076;-87
2023/12/08 07:11:15;;;;;;;0.82;0.82;;;;;;;3.56;59.37;100126.38;5347829;26;20106;-88
2023/12/08 07:13:40;;;;;;;0.47;0.47;;;;;;;3.65;59.38;100128.97;5369208;26;20083;-87
2023/12/08 07:16:09;;;;;;;0.65;0.65;;;;;;;3.63;59.38;100131.53;5349459;26;20352;-88
2023/12/08 07:18:36;;;;;;;1.85;1.08;;;;;;;3.92;59.40;100135.87;5351186;26;20040;-87
2023/12/08 07:21:03;;;;;;;1.23;1.08;;;;;;;3.80;59.39;100143.59;5339401;26;20064;-87
2023/12/08 07:23:28;;;;;;;1.95;1.67;;;;;;;3.75;59.38;100140.97;5346918;26;20056;-87
2023/12/08 07:25:53;;;;;;;0.70;0.70;;;;;;;3.87;59.39;100130.72;5328396;26;20068;-87
2023/12/08 07:28:19;;;;;;;0.10;0.10;;;;;;;3.65;59.38;100132.37;5346359;26;26570;-87
2023/12/08 07:30:44;;;;;;;9.13;0.47;;;;;;;3.71;59.38;100131.53;5328260;26;20075;-88
2023/12/08 07:33:09;;;;;;;1.17;1.15;;;;;;;3.82;59.38;100131.56;5346503;26;22945;-88
2023/12/08 07:35:35;;;;;;;0.52;0.52;;;;;;;3.89;59.39;100126.41;5309618;26;20204;-87
2023/12/08 07:38:01;;;;;;;2.67;1.80;;;;;;;3.92;59.40;100120.41;5347001;26;20431;-88
2023/12/08 07:40:26;;;;;;;1.42;1.30;;;;;;;4.06;59.41;100117.84;5366917;26;20055;-87
2023/12/08 07:42:51;;;;;;;1.75;1.65;;;;;;;4.36;59.42;100114.41;5346423;26;25805;-88
2023/12/08 07:45:17;;;;;;;2.25;1.52;;;;;;;4.59;59.43;100095.47;5346307;26;20060;-87
2023/12/08 07:47:42;;;;;;;1.65;1.55;;;;;;;4.41;59.42;100105.78;5328157;26;20060;-87
2023/12/08 07:50:08;;;;;;;0.70;0.70;;;;;;;4.36;59.42;100114.41;5346796;26;26735;-88
2023/12/08 07:52:34;;;;;;;0.37;0.37;;;;;;;4.37;59.42;100119.56;5328749;26;20075;-88
2023/12/08 07:54:59;;;;;;;0.60;0.60;;;;;;;4.62;59.43;100121.22;5366685;26;20094;-87
2023/12/08 07:57:24;;;;;;;0.77;0.73;;;;;;;4.71;59.43;100128.06;5309594;26;20515;-88
2023/12/08 07:59:50;;;;;;;0.35;0.35;;;;;;;4.79;59.43;100120.34;5327939;26;20356;-88
2023/12/08 08:02:15;;;;;;;3.12;2.70;;;;;;;4.65;59.44;100124.66;5349457;26;20100;-87
2023/12/08 08:04:41;;;;;;;0.70;0.70;;;;;;;4.66;59.44;100131.53;5345976;26;21901;-87
2023/12/08 08:07:06;;;;;;;1.00;0.90;;;;;;;4.76;59.44;100122.94;5328033;26;20075;-88
2023/12/08 08:09:32;;;;;;;1.08;1.08;;;;;;;5.00;59.45;100124.59;5346412;26;20060;-88
2023/12/08 08:11:58;;;;;;;2.10;1.90;;;;;;;4.90;59.45;100124.59;5309323;26;20090;-88
2023/12/08 08:14:23;;;;;;;0.65;0.65;;;;;;;4.98;59.45;100118.56;5346681;26;20074;-88
2023/12/08 08:16:49;;;;;;;0.70;0.70;;;;;;;5.02;59.46;100113.38;5365851;26;24372;-88
2023/12/08 08:19:14;;;;;;;2.08;1.20;;;;;;;4.87;59.45;100116.00;5366432;26;20074;-88
2023/12/08 08:21:39;;;;;;;6.05;2.45;;;;;;;5.05;59.46;100112.50;5366859;26;20064;-88
2023/12/08 08:24:05;;;;;;;0.82;0.60;;;;;;;5.08;59.46;100107.34;5348514;26;20071;-88
2023/12/08 08:26:30;;;;;;;0.82;0.82;;;;;;;5.11;59.46;100104.75;5346164;26;20396;-87
2023/12/08 08:28:56;;;;;;;2.90;2.15;;;;;;;5.18;59.47;100109.00;5365856;26;20708;-88
2023/12/08 08:31:21;;;;;;;0.57;0.57;;;;;;;5.47;59.48;100108.88;5365563;26;30735;-88
2023/12/08 08:33:47;;;;;;;2.30;1.90;;;;;;;5.53;59.47;100112.28;5309498;26;20078;-88
2023/12/08 08:36:12;;;;;;;1.55;1.45;;;;;;;5.69;59.50;100107.03;5346532;26;20048;-88
2023/12/08 08:38:38;;;;;;;0.60;0.60;;;;;;;5.59;59.48;100095.88;5346500;26;20060;-88
2023/12/08 08:41:03;;;;;;;6.85;1.58;;;;;;;5.77;59.50;100103.53;5327786;26;20329;-88
2023/12/08 08:43:29;;;;;;;13.05;2.10;;;;;;;5.83;59.50;100097.44;5309896;26;20434;-88
2023/12/08 08:45:54;;;;;;;3.17;2.97;;;;;;;5.81;59.50;100092.28;5343567;26;20091;-88
2023/12/08 08:48:20;;;;;;;3.10;2.65;;;;;;;5.87;59.50;100089.66;5344500;26;20040;-88
2023/12/08 08:50:45;;;;;;;1.33;0.70;;;;;;;6.01;59.51;100073.22;5327488;26;20479;-88
2023/12/08 08:53:10;;;;;;;1.95;1.67;;;;;;;5.97;59.50;100063.78;5346772;26;21447;-88
2023/12/08 08:55:36;;;;;;;1.85;1.75;;;;;;;5.96;59.50;100082.75;5348472;26;20098;-86
2023/12/08 08:58:01;;;;;;;5.85;3.65;;;;;;;5.76;59.50;100114.72;5354895;26;27907;-89
2023/12/08 09:00:27;;;;;;;2.10;1.95;;;;;;;5.80;59.50;100131.91;5323937;26;20139;-88
2023/12/08 09:02:52;;;;;;;1.50;1.40;;;;;;;5.87;59.50;100127.53;5342591;26;20048;-88
2023/12/08 09:05:18;;;;;;;1.75;1.65;;;;;;;5.97;59.51;100121.50;5342627;26;20087;-88
2023/12/08 09:07:44;;;;;;;3.28;3.08;;;;;;;5.99;59.51;100132.69;5343994;26;20075;-88
2023/12/08 09:10:09;;;;;;;1.70;1.60;;;;;;;5.96;59.51;100139.59;5342446;26;20075;-88
2023/12/08 09:12:35;;;;;;;1.40;1.30;;;;;;;5.94;59.50;100129.28;5342203;26;20302;-89
2023/12/08 09:15:00;;;;;;;3.40;1.80;;;;;;;6.03;59.51;100118.00;5341826;26;27379;-88
2023/12/08 09:17:26;;;;;;;2.72;2.53;;;;;;;5.87;59.50;100114.63;5342641;26;20130;-88
2023/12/08 09:19:51;;;;;;;5.00;3.78;;;;;;;5.84;59.51;100112.94;5344284;26;29209;-88
2023/12/08 09:22:16;;;;;;;2.62;2.53;;;;;;;5.98;59.50;100106.84;5342123;26;21963;-89
2023/12/08 09:24:42;;;;;;;1.83;1.55;;;;;;;6.12;59.51;100107.59;5341820;26;22203;-88
2023/12/08 09:27:07;;;;;;;2.33;2.10;;;;;;;6.12;59.51;100099.81;5305615;26;20053;-89
2023/12/08 09:29:33;;;;;;;1.85;1.45;;;;;;;6.10;59.51;100097.25;5323579;26;25581;-88
2023/12/08 09:31:58;;;;;;;1.70;1.60;;;;;;;6.50;59.53;100098.63;5342596;26;20122;-88
2023/12/08 09:34:24;;;;;;;1.83;1.55;;;;;;;6.41;59.53;100095.28;5323920;26;20049;-88
2023/12/08 09:36:49;;;;;;;6.53;1.90;;;;;;;6.50;59.53;100098.63;5323693;26;27183;-88
2023/12/08 09:39:14;;;;;;;1.05;1.02;;;;;;;6.05;59.50;100095.59;5344805;26;24250;-87
2023/12/08 09:41:40;;;;;;;2.08;1.95;;;;;;;6.02;59.51;100085.28;5324072;26;20091;-87
2023/12/08 09:44:12;;;;;;;2.12;1.12;;;;;;;6.30;59.53;100079.00;5345144;26;20167;-88
2023/12/08 09:46:39;;;;;;;4.47;1.05;;;;;;;6.32;59.53;100079.84;5328065;26;20051;-87
2023/12/08 09:49:05;;;;;;;0.75;0.75;;;;;;;6.07;59.52;100079.19;5309186;26;20123;-87
2023/12/08 09:51:30;;;;;;;1.23;1.20;;;;;;;6.25;59.52;100070.44;5327801;26;20096;-88
2023/12/08 09:53:57;;;;;;;1.73;1.62;;;;;;;6.59;59.54;100062.31;5327442;26;27686;-87
2023/12/08 09:56:23;;;;;;;2.72;2.53;;;;;;;6.46;59.54;100070.22;5347684;26;20067;-87
2023/12/08 09:58:49;;;;;;;5.97;2.58;;;;;;;6.39;59.53;100059.97;5328493;26;20759;-87
2023/12/08 10:01:17;;;;;;;0.90;0.85;;;;;;;6.53;59.54;100057.22;5346516;26;26317;-87
2023/12/08 10:03:43;;;;;;;1.92;1.73;;;;;;;6.44;59.54;100058.19;5347869;26;20062;-87
2023/12/08 10:06:08;;;;;;;0.88;0.88;;;;;;;6.57;59.54;100053.72;5366474;26;20058;-88
2023/12/08 10:08:33;;;;;;;2.55;1.98;;;;;;;6.59;59.55;100057.16;5345455;26;24397;-87
2023/12/08 10:10:59;;;;;;;2.35;2.17;;;;;;;6.59;59.55;100046.81;5308269;26;26995;-87
2023/12/08 10:13:24;;;;;;;0.70;0.70;;;;;;;6.55;59.54;100052.88;5308867;26;20483;-87
2023/12/08 10:15:50;;;;;;;1.23;1.23;;;;;;;6.41;59.53;100059.06;5308825;26;20328;-88
2023/12/08 10:18:25;;;;;;;4.70;2.75;;;;;;;6.58;59.55;100056.28;5327862;26;20523;-87
2023/12/08 10:20:51;;;;;;;0.47;0.47;;;;;;;6.58;59.55;100045.09;5346566;26;20123;-87
2023/12/08 10:23:22;;;;;;;5.15;2.35;;;;;;;6.51;59.54;100040.87;5346917;26;20068;-87
2023/12/08 10:25:48;;;;;;;0.62;0.62;;;;;;;6.42;59.54;100045.28;5346855;26;20452;-87
2023/12/08 10:28:14;;;;;;;1.00;1.00;;;;;;;6.32;59.53;100043.63;5345956;26;23287;-87
2023/12/08 10:30:45;;;;;;;1.20;1.20;;;;;;;6.42;59.53;100039.25;5310187;26;20154;-87
2023/12/08 10:33:20;;;;;;;3.20;2.05;;;;;;;6.42;59.54;100037.50;5348059;26;20040;-87
2023/12/08 10:35:46;;;;;;;3.90;2.08;;;;;;;6.40;59.53;100044.44;5312324;26;20401;-87
2023/12/08 10:38:11;;;;;;;2.97;1.87;;;;;;;6.49;59.54;100042.62;5346027;26;20153;-87
2023/12/08 10:40:36;;;;;;;1.85;1.75;;;;;;;6.51;59.54;100033.97;5308889;26;20107;-87
2023/12/08 10:43:02;;;;;;;11.45;2.55;;;;;;;6.26;59.52;100035.09;5327334;26;20393;-87
2023/12/08 10:45:27;;;;;;;2.65;2.45;;;;;;;6.50;59.53;100039.16;5345835;26;20071;-87
2023/12/08 10:47:53;;;;;;;1.35;1.35;;;;;;;6.45;59.54;100045.25;5308580;26;27673;-87
2023/12/08 10:50:19;;;;;;;1.60;1.50;;;;;;;6.45;59.54;100028.88;5308160;26;33032;-87
2023/12/08 10:52:44;;;;;;;1.60;1.50;;;;;;;6.63;59.54;100027.81;5327476;26;20092;-87
2023/12/08 10:55:11;;;;;;;5.75;2.67;;;;;;;6.59;59.55;100024.38;5328355;26;20064;-87
2023/12/08 10:57:37;;;;;;;2.37;2.17;;;;;;;6.52;59.54;100040.00;5311785;26;20064;-87
2023/12/08 11:00:18;;;;;;;0.37;0.37;;;;;;;6.60;59.54;100020.91;5327302;26;20059;-87
2023/12/08 11:02:47;;;;;;;2.60;2.40;;;;;;;6.45;59.53;100029.72;5348276;26;20053;-88
2023/12/08 11:05:18;;;;;;;1.25;0.82;;;;;;;6.34;59.53;100026.38;5366324;26;20047;-87
2023/12/08 11:07:43;;;;;;;1.95;1.85;;;;;;;6.34;59.53;100020.34;5345901;26;20049;-87
2023/12/08 11:10:09;;;;;;;0.68;0.68;;;;;;;6.40;59.53;100010.81;5365550;26;23394;-88
2023/12/08 11:12:42;;;;;;;1.75;1.65;;;;;;;6.42;59.52;100022.00;5345598;26;20085;-88
2023/12/08 11:15:16;;;;;;;1.00;1.00;;;;;;;6.33;59.53;100013.47;5328701;26;20052;-87
2023/12/08 11:17:52;;;;;;;0.57;0.57;;;;;;;6.45;59.54;100011.62;5327220;26;20924;-88
2023/12/08 11:20:18;;;;;;;3.75;2.10;;;;;;;6.47;59.54;100009.87;5365975;26;20060;-87
2023/12/08 11:22:44;;;;;;;3.10;1.65;;;;;;;6.57;59.54;100014.94;5345270;26;23057;-87
2023/12/08 11:25:14;;;;;;;2.08;1.87;;;;;;;6.41;59.53;100004.78;5327081;26;20412;-87
2023/12/08 11:27:49;;;;;;;2.33;1.95;;;;;;;6.42;59.53;99995.28;5308854;26;20059;-87